Time;durP1;ratioP1;P1;durP2;ratioP2;P2;SDS_P1;SDS_P2;PMS_P1;PMS_P2;Temp;Humidity;BMP_temperature;BMP_pressure;BME280_temperature;BME280_humidity;BME280_pressure;Samples;Min_cycle;Max_cycle;Signal;HPM_P1;HPM_P2
2023/04/19 00:01:22;;;;;;;19.90;15.23;;;7.90;99.90;;;;;;5009608;28;20040;-81
2023/04/19 00:03:47;;;;;;;28.67;20.47;;;7.90;99.90;;;;;;5011242;28;20044;-78
2023/04/19 00:06:13;;;;;;;24.50;18.33;;;7.90;99.90;;;;;;5010741;28;20390;-80
2023/04/19 00:08:40;;;;;;;27.13;16.27;;;7.90;99.90;;;;;;5010034;28;20037;-78
2023/04/19 00:11:06;;;;;;;20.73;14.87;;;7.90;99.90;;;;;;5009450;28;20071;-78
2023/04/19 00:13:32;;;;;;;20.70;15.83;;;7.90;99.90;;;;;;5009907;28;20049;-78
2023/04/19 00:15:57;;;;;;;18.60;15.30;;;7.90;99.90;;;;;;5009999;28;20187;-78
2023/04/19 00:18:23;;;;;;;22.03;14.87;;;7.90;99.90;;;;;;5011341;28;20078;-78
2023/04/19 00:20:49;;;;;;;18.80;14.60;;;7.80;99.90;;;;;;5010843;28;20065;-78
2023/04/19 00:23:14;;;;;;;17.33;14.03;;;7.80;99.90;;;;;;5010283;28;20056;-78
2023/04/19 00:25:40;;;;;;;17.90;14.77;;;7.70;99.90;;;;;;5010204;28;20076;-77
2023/04/19 00:28:05;;;;;;;18.23;14.80;;;7.80;99.90;;;;;;5010354;28;20053;-78
2023/04/19 00:30:31;;;;;;;17.43;14.60;;;7.80;99.90;;;;;;5010474;28;20770;-78
2023/04/19 00:32:57;;;;;;;19.00;14.63;;;7.80;99.90;;;;;;5010339;28;20030;-78
2023/04/19 00:35:22;;;;;;;19.53;14.60;;;7.80;99.90;;;;;;5010169;28;20040;-79
2023/04/19 00:37:48;;;;;;;18.57;14.77;;;7.70;99.90;;;;;;5010380;28;20173;-78
2023/04/19 00:40:13;;;;;;;15.90;13.73;;;7.70;99.90;;;;;;5009749;28;21050;-78
2023/04/19 00:42:39;;;;;;;19.40;14.73;;;7.70;99.90;;;;;;5011776;28;20542;-78
2023/04/19 00:45:05;;;;;;;17.47;14.37;;;7.70;99.90;;;;;;5010930;28;20727;-78
2023/04/19 00:47:30;;;;;;;18.70;14.70;;;7.70;99.90;;;;;;5009321;28;20041;-78
2023/04/19 00:49:56;;;;;;;17.63;15.03;;;7.60;99.90;;;;;;5009229;28;20335;-80
2023/04/19 00:52:22;;;;;;;19.63;15.90;;;7.60;99.90;;;;;;5013128;28;20029;-78
2023/04/19 00:54:48;;;;;;;18.50;14.77;;;7.60;99.90;;;;;;5015016;28;20041;-78
2023/04/19 00:57:15;;;;;;;19.33;15.23;;;7.70;99.90;;;;;;5014248;28;20635;-78
2023/04/19 00:59:41;;;;;;;19.50;15.37;;;7.60;99.90;;;;;;5013459;28;20034;-78
2023/04/19 01:02:08;;;;;;;18.77;15.30;;;7.60;99.90;;;;;;5013205;28;20036;-77
2023/04/19 01:04:33;;;;;;;19.83;16.30;;;7.70;99.90;;;;;;5013585;28;20026;-78
2023/04/19 01:07:00;;;;;;;21.63;16.37;;;7.60;99.90;;;;;;5013526;28;20040;-78
2023/04/19 01:09:25;;;;;;;19.93;16.87;;;7.60;99.90;;;;;;5014936;28;20056;-78
2023/04/19 01:11:51;;;;;;;19.50;15.97;;;7.60;99.90;;;;;;5014714;28;20037;-78
2023/04/19 01:14:16;;;;;;;20.77;17.13;;;7.60;99.90;;;;;;5012784;28;20457;-79
2023/04/19 01:16:42;;;;;;;21.90;17.00;;;7.60;99.90;;;;;;5013844;28;20032;-77
2023/04/19 01:19:08;;;;;;;20.20;16.97;;;7.60;99.90;;;;;;5012893;28;20037;-78
2023/04/19 01:21:38;;;;;;;20.43;16.17;;;7.60;99.90;;;;;;5013761;28;20092;-78
2023/04/19 01:24:03;;;;;;;20.53;17.10;;;7.60;99.90;;;;;;5013154;28;20060;-81
2023/04/19 01:26:29;;;;;;;21.07;16.57;;;7.60;99.90;;;;;;5013096;28;20050;-79
2023/04/19 01:28:55;;;;;;;22.63;17.73;;;7.60;99.90;;;;;;5013087;28;20124;-79
2023/04/19 01:31:20;;;;;;;21.70;17.70;;;7.60;99.90;;;;;;5012366;28;20064;-78
2023/04/19 01:33:46;;;;;;;20.83;17.43;;;7.60;99.90;;;;;;5014391;28;20045;-79
2023/04/19 01:36:12;;;;;;;22.20;17.47;;;7.60;99.90;;;;;;5015229;28;20675;-78
2023/04/19 01:38:37;;;;;;;23.37;18.53;;;7.60;99.90;;;;;;5016548;28;20033;-80
2023/04/19 01:41:03;;;;;;;26.43;18.67;;;7.60;99.90;;;;;;5013256;28;20144;-79
2023/04/19 01:43:28;;;;;;;23.60;19.37;;;7.60;99.90;;;;;;5013537;28;20044;-80
2023/04/19 01:45:54;;;;;;;24.53;20.27;;;7.60;99.90;;;;;;5013389;28;20022;-77
2023/04/19 01:48:19;;;;;;;23.93;19.17;;;7.60;99.90;;;;;;5013760;28;20022;-78
2023/04/19 01:50:45;;;;;;;24.10;20.10;;;7.60;99.90;;;;;;5013354;28;20042;-79
2023/04/19 01:53:11;;;;;;;24.03;19.33;;;7.60;99.90;;;;;;5012764;28;20026;-79
2023/04/19 01:55:36;;;;;;;24.57;18.27;;;7.60;99.90;;;;;;5013102;28;20045;-78
2023/04/19 01:58:02;;;;;;;23.93;19.43;;;7.60;99.90;;;;;;5011901;28;20460;-80
2023/04/19 02:00:27;;;;;;;24.00;19.03;;;7.50;99.90;;;;;;5012525;28;20135;-78
2023/04/19 02:02:53;;;;;;;26.57;20.70;;;7.50;99.90;;;;;;5012611;28;20037;-78
2023/04/19 02:05:19;;;;;;;25.53;20.03;;;7.50;99.90;;;;;;5012021;28;20053;-78
2023/04/19 02:07:44;;;;;;;26.57;20.17;;;7.50;99.90;;;;;;5012328;28;20057;-80
2023/04/19 02:10:10;;;;;;;25.57;20.93;;;7.50;99.90;;;;;;5011987;28;20038;-78
2023/04/19 02:12:36;;;;;;;26.27;21.23;;;7.50;99.90;;;;;;5013479;28;20049;-78
2023/04/19 02:15:02;;;;;;;28.33;22.10;;;7.50;99.90;;;;;;5012395;28;20026;-78
2023/04/19 02:17:28;;;;;;;27.30;21.17;;;7.50;99.90;;;;;;5012413;28;20044;-78
2023/04/19 02:19:54;;;;;;;29.77;22.53;;;7.50;99.90;;;;;;5011884;28;20147;-78
2023/04/19 02:22:20;;;;;;;28.57;21.73;;;7.50;99.90;;;;;;5012085;28;20401;-79
2023/04/19 02:24:46;;;;;;;29.33;22.57;;;7.50;99.90;;;;;;5013214;28;20501;-78
2023/04/19 02:27:12;;;;;;;29.17;21.93;;;7.50;99.90;;;;;;5011537;28;20037;-78
2023/04/19 02:29:38;;;;;;;31.67;22.27;;;7.50;99.90;;;;;;5010961;28;20057;-80
2023/04/19 02:32:07;;;;;;;27.73;23.13;;;7.50;99.90;;;;;;5012150;28;20041;-79
2023/04/19 02:34:33;;;;;;;28.43;23.33;;;7.50;99.90;;;;;;5012234;28;21009;-81
2023/04/19 02:36:59;;;;;;;28.17;22.00;;;7.50;99.90;;;;;;5013143;28;20084;-78
2023/04/19 02:39:25;;;;;;;29.47;23.33;;;7.50;99.90;;;;;;5011164;28;20041;-80
2023/04/19 02:41:50;;;;;;;32.47;24.03;;;7.50;99.90;;;;;;5011343;28;20172;-78
2023/04/19 02:44:16;;;;;;;30.13;23.07;;;7.50;99.90;;;;;;5011399;28;20033;-81
2023/04/19 02:46:50;;;;;;;31.77;24.57;;;7.50;99.90;;;;;;5011033;28;20846;-79
2023/04/19 02:49:16;;;;;;;32.20;23.38;;;7.50;99.90;;;;;;5012286;28;20470;-80
2023/04/19 02:51:42;;;;;;;33.07;25.40;;;7.50;99.90;;;;;;5011528;28;20033;-78
2023/04/19 02:54:07;;;;;;;36.40;26.60;;;7.50;99.90;;;;;;5011473;28;20037;-78
2023/04/19 02:56:33;;;;;;;37.00;26.60;;;7.50;99.90;;;;;;5011333;28;20037;-78
2023/04/19 02:59:03;;;;;;;37.40;27.33;;;7.40;99.90;;;;;;5013290;28;20022;-77
2023/04/19 03:01:30;;;;;;;37.07;27.67;;;7.50;99.90;;;;;;5012026;28;20394;-78
2023/04/19 03:03:55;;;;;;;41.93;28.60;;;7.50;99.90;;;;;;5011690;28;20053;-79
2023/04/19 03:06:21;;;;;;;40.60;27.83;;;7.40;99.90;;;;;;5010965;28;20119;-80
2023/04/19 03:08:46;;;;;;;39.00;29.07;;;7.40;99.90;;;;;;5010951;28;20030;-77
2023/04/19 03:11:14;;;;;;;40.90;30.50;;;7.40;99.90;;;;;;5011019;28;20025;-78
2023/04/19 03:13:40;;;;;;;44.87;32.00;;;7.30;99.90;;;;;;5010895;28;20057;-79
2023/04/19 03:16:06;;;;;;;41.80;30.97;;;7.30;99.90;;;;;;5012705;28;20148;-77
2023/04/19 03:18:32;;;;;;;41.97;30.80;;;7.30;99.90;;;;;;5011109;28;20545;-78
2023/04/19 03:20:58;;;;;;;42.03;30.60;;;7.30;99.90;;;;;;5010356;28;20127;-79
2023/04/19 03:23:25;;;;;;;45.63;31.90;;;7.30;99.90;;;;;;5010506;28;20028;-81
2023/04/19 03:25:50;;;;;;;45.47;32.23;;;7.30;99.90;;;;;;5011534;28;20124;-78
2023/04/19 03:28:16;;;;;;;49.07;34.33;;;7.30;99.90;;;;;;5011772;28;20601;-79
2023/04/19 03:30:41;;;;;;;49.87;34.70;;;7.30;99.90;;;;;;5009600;28;20045;-77
2023/04/19 03:33:07;;;;;;;47.43;34.10;;;7.30;99.90;;;;;;5010501;28;20029;-79
2023/04/19 03:35:32;;;;;;;45.57;33.57;;;7.20;99.90;;;;;;5010174;28;20084;-79
2023/04/19 03:37:58;;;;;;;48.60;34.97;;;7.20;99.90;;;;;;5010942;28;20083;-81
2023/04/19 03:40:23;;;;;;;48.10;35.17;;;7.20;99.90;;;;;;5011869;28;20037;-78
2023/04/19 03:42:49;;;;;;;49.13;34.50;;;7.20;99.90;;;;;;5010490;28;20218;-78
2023/04/19 03:45:15;;;;;;;50.50;34.63;;;7.20;99.90;;;;;;5010827;28;20051;-78
2023/04/19 03:47:40;;;;;;;56.07;35.97;;;7.20;99.90;;;;;;5009840;28;20116;-78
2023/04/19 03:50:07;;;;;;;56.50;36.37;;;7.20;99.90;;;;;;5011235;28;20505;-79
2023/04/19 03:52:32;;;;;;;50.10;35.57;;;7.20;99.90;;;;;;5010321;28;20021;-80
2023/04/19 03:54:58;;;;;;;53.67;36.00;;;7.10;99.90;;;;;;5010233;28;20048;-79
2023/04/19 03:57:24;;;;;;;51.77;35.03;;;7.20;99.90;;;;;;5011574;28;20474;-79
2023/04/19 03:59:49;;;;;;;52.53;36.33;;;7.20;99.90;;;;;;5010330;28;20151;-77
2023/04/19 04:02:15;;;;;;;51.17;35.37;;;7.10;99.90;;;;;;5010759;28;20033;-78
2023/04/19 04:04:40;;;;;;;48.37;34.97;;;7.10;99.90;;;;;;5010577;28;20104;-78
2023/04/19 04:07:06;;;;;;;48.87;35.00;;;7.10;99.90;;;;;;5010760;28;21074;-78
2023/04/19 04:09:31;;;;;;;46.40;33.97;;;7.20;99.90;;;;;;5009541;28;20033;-79
2023/04/19 04:11:57;;;;;;;47.50;32.73;;;7.10;99.90;;;;;;5010942;28;20052;-79
2023/04/19 04:14:23;;;;;;;47.10;33.97;;;7.10;99.90;;;;;;5010795;28;21406;-79
2023/04/19 04:16:48;;;;;;;44.30;32.70;;;7.10;99.90;;;;;;5010625;28;20378;-78
2023/04/19 04:19:14;;;;;;;47.23;33.47;;;7.10;99.90;;;;;;5010456;28;20032;-78
2023/04/19 04:21:39;;;;;;;45.77;33.07;;;7.20;99.90;;;;;;5009882;28;20121;-78
2023/04/19 04:24:06;;;;;;;45.60;32.63;;;7.10;99.90;;;;;;5010158;28;20687;-78
2023/04/19 04:26:32;;;;;;;45.43;32.63;;;7.20;99.90;;;;;;5011368;28;20041;-78
2023/04/19 04:29:00;;;;;;;47.43;32.97;;;7.20;99.90;;;;;;5014577;28;20113;-78
2023/04/19 04:31:26;;;;;;;48.37;34.23;;;7.20;99.90;;;;;;5013220;28;20116;-80
2023/04/19 04:33:54;;;;;;;47.30;33.33;;;7.20;99.90;;;;;;5014041;28;20051;-77
2023/04/19 04:36:19;;;;;;;45.07;32.90;;;7.10;99.90;;;;;;5014043;28;20059;-77
2023/04/19 04:38:45;;;;;;;45.87;33.53;;;7.10;99.90;;;;;;5014057;28;20022;-78
2023/04/19 04:41:11;;;;;;;42.17;31.93;;;7.20;99.90;;;;;;5013861;28;20038;-80
2023/04/19 04:43:37;;;;;;;45.60;32.23;;;7.20;99.90;;;;;;5014103;28;20766;-78
2023/04/19 04:46:02;;;;;;;44.13;32.57;;;7.20;99.90;;;;;;5014371;28;20040;-77
2023/04/19 04:48:30;;;;;;;44.70;32.37;;;7.20;99.90;;;;;;5014687;28;20079;-78
2023/04/19 04:50:56;;;;;;;41.57;30.97;;;7.20;99.90;;;;;;5013681;28;20044;-78
2023/04/19 04:53:22;;;;;;;42.60;32.17;;;7.20;99.90;;;;;;5014564;28;20026;-78
2023/04/19 04:55:47;;;;;;;46.20;32.37;;;7.20;99.90;;;;;;5014225;28;20040;-79
2023/04/19 04:58:13;;;;;;;43.40;31.37;;;7.20;99.90;;;;;;5013911;28;20120;-77
2023/04/19 05:00:38;;;;;;;42.73;31.40;;;7.20;99.90;;;;;;5013666;28;20486;-80
2023/04/19 05:03:04;;;;;;;42.50;30.80;;;7.20;99.90;;;;;;5014041;28;20670;-77
2023/04/19 05:05:29;;;;;;;43.17;30.63;;;7.20;99.90;;;;;;5012162;28;20520;-78
2023/04/19 05:07:55;;;;;;;42.93;32.40;;;7.20;99.90;;;;;;5013087;28;20041;-79
2023/04/19 05:10:20;;;;;;;43.50;29.43;;;7.20;99.90;;;;;;5014079;28;20033;-77
2023/04/19 05:12:46;;;;;;;42.70;30.37;;;7.20;99.90;;;;;;5013534;28;20025;-78
2023/04/19 05:15:12;;;;;;;53.77;32.13;;;7.30;99.90;;;;;;5014572;28;20529;-78
2023/04/19 05:17:37;;;;;;;44.17;30.83;;;7.30;99.90;;;;;;5016950;28;20110;-78
2023/04/19 05:20:04;;;;;;;40.70;29.60;;;7.30;99.90;;;;;;5015035;28;20030;-76
2023/04/19 05:22:30;;;;;;;40.27;29.50;;;7.30;99.90;;;;;;5015491;28;20472;-77
2023/04/19 05:24:55;;;;;;;37.53;28.93;;;7.30;99.90;;;;;;5014330;28;20091;-76
2023/04/19 05:27:21;;;;;;;41.60;30.60;;;7.30;99.90;;;;;;5013836;28;20096;-77
2023/04/19 05:29:46;;;;;;;45.43;30.23;;;7.30;99.90;;;;;;5012831;28;20056;-76
2023/04/19 05:32:12;;;;;;;39.20;28.80;;;7.40;99.90;;;;;;5013364;28;20029;-76
2023/04/19 05:34:37;;;;;;;45.83;29.57;;;7.40;99.90;;;;;;5013681;28;20163;-75
2023/04/19 05:37:04;;;;;;;40.10;28.47;;;7.40;99.90;;;;;;5013841;28;20088;-76
2023/04/19 05:39:30;;;;;;;41.17;28.03;;;7.40;99.90;;;;;;5013049;28;20061;-77
2023/04/19 05:41:55;;;;;;;41.60;29.47;;;7.40;99.90;;;;;;5013128;28;20059;-76
2023/04/19 05:44:21;;;;;;;40.03;29.50;;;7.40;99.90;;;;;;5013908;28;20037;-76
2023/04/19 05:46:46;;;;;;;44.63;29.57;;;7.40;99.90;;;;;;5013409;28;20577;-76
2023/04/19 05:49:12;;;;;;;39.20;28.00;;;7.40;99.90;;;;;;5013253;28;20025;-79
2023/04/19 05:51:37;;;;;;;44.50;29.47;;;7.40;99.90;;;;;;5012441;28;20033;-79
2023/04/19 05:54:03;;;;;;;40.50;28.97;;;7.40;99.90;;;;;;5013628;28;20049;-80
2023/04/19 05:56:28;;;;;;;41.30;27.93;;;7.40;99.90;;;;;;5013566;28;20040;-79
2023/04/19 05:58:58;;;;;;;38.90;28.20;;;7.50;99.90;;;;;;5013078;28;20040;-79
2023/04/19 06:01:24;;;;;;;38.83;28.07;;;7.50;99.90;;;;;;5012610;28;20547;-81
2023/04/19 06:03:51;;;;;;;38.77;28.17;;;7.50;99.90;;;;;;5012705;28;20042;-80
2023/04/19 06:06:18;;;;;;;38.37;27.10;;;7.50;99.90;;;;;;5013131;28;20609;-79
2023/04/19 06:08:43;;;;;;;41.67;28.70;;;7.50;99.90;;;;;;5006425;28;20214;-84
2023/04/19 06:11:09;;;;;;;44.07;29.00;;;7.50;99.90;;;;;;5007708;28;20676;-81
2023/04/19 06:13:35;;;;;;;38.90;27.63;;;7.60;99.90;;;;;;5006936;28;20256;-81
2023/04/19 06:16:01;;;;;;;42.30;27.80;;;7.60;99.90;;;;;;5007435;28;20047;-79
2023/04/19 06:18:27;;;;;;;37.83;26.57;;;7.60;99.90;;;;;;5007791;28;20397;-79
2023/04/19 06:20:53;;;;;;;38.97;26.53;;;7.60;99.90;;;;;;5006987;28;20037;-83
2023/04/19 06:23:18;;;;;;;42.47;28.70;;;7.60;99.90;;;;;;5006906;28;20097;-81
2023/04/19 06:25:44;;;;;;;39.07;27.63;;;7.60;99.90;;;;;;5008435;28;20038;-83
2023/04/19 06:28:10;;;;;;;40.33;26.90;;;7.60;99.90;;;;;;5008355;28;20029;-79
2023/04/19 06:30:36;;;;;;;70.03;40.17;;;7.60;99.90;;;;;;5007373;28;20037;-82
2023/04/19 06:33:01;;;;;;;48.20;31.47;;;7.60;99.90;;;;;;5007373;28;20036;-81
2023/04/19 06:35:27;;;;;;;38.00;26.80;;;7.60;99.90;;;;;;5007407;28;20014;-79
2023/04/19 06:37:52;;;;;;;37.97;26.57;;;7.60;99.90;;;;;;5007614;28;20164;-82
2023/04/19 06:40:18;;;;;;;42.47;28.23;;;7.60;99.90;;;;;;5008277;28;20159;-80
2023/04/19 06:42:43;;;;;;;35.50;24.30;;;7.60;99.90;;;;;;5007540;28;20072;-81
2023/04/19 06:45:10;;;;;;;35.53;23.90;;;7.60;99.90;;;;;;5007568;28;21163;-81
2023/04/19 06:47:35;;;;;;;36.63;24.90;;;7.60;99.90;;;;;;5008176;28;20049;-82
2023/04/19 06:50:01;;;;;;;38.43;25.37;;;7.60;99.90;;;;;;5006566;28;20116;-81
2023/04/19 06:52:27;;;;;;;39.33;24.00;;;7.60;99.90;;;;;;5007398;28;20509;-79
2023/04/19 06:54:53;;;;;;;39.13;25.03;;;7.70;99.90;;;;;;5005850;28;20402;-81
2023/04/19 06:57:18;;;;;;;35.77;25.60;;;7.70;99.90;;;;;;5007345;28;20039;-83
2023/04/19 06:59:44;;;;;;;34.80;23.93;;;7.70;99.90;;;;;;5006638;28;20036;-82
2023/04/19 07:02:10;;;;;;;38.67;24.83;;;7.80;99.90;;;;;;5009286;28;20080;-82
2023/04/19 07:04:36;;;;;;;37.53;24.23;;;7.80;99.90;;;;;;5012411;28;20057;-81
2023/04/19 07:07:02;;;;;;;39.50;25.20;;;7.80;99.90;;;;;;5013237;28;20069;-79
2023/04/19 07:09:28;;;;;;;33.63;22.63;;;7.80;99.90;;;;;;5010642;28;20100;-79
2023/04/19 07:11:53;;;;;;;37.00;24.97;;;7.90;99.90;;;;;;5010891;28;20429;-81
2023/04/19 07:14:19;;;;;;;37.70;24.80;;;7.90;99.90;;;;;;5011576;28;20064;-83
2023/04/19 07:16:45;;;;;;;34.43;23.33;;;7.90;99.90;;;;;;5011649;28;20037;-80
2023/04/19 07:19:12;;;;;;;36.00;25.10;;;7.90;99.90;;;;;;5013156;28;20040;-83
2023/04/19 07:21:38;;;;;;;37.63;23.93;;;7.90;99.90;;;;;;5012841;28;20034;-81
2023/04/19 07:24:05;;;;;;;32.80;23.20;;;8.00;99.90;;;;;;5010937;28;20501;-83
2023/04/19 07:26:31;;;;;;;37.20;25.00;;;8.00;99.90;;;;;;5010883;28;20088;-79
2023/04/19 07:28:57;;;;;;;36.03;23.77;;;8.00;99.90;;;;;;5012007;28;20037;-80
2023/04/19 07:31:26;;;;;;;34.73;23.83;;;8.10;99.90;;;;;;5011187;28;20041;-81
2023/04/19 07:33:52;;;;;;;33.20;22.63;;;8.10;99.90;;;;;;5011604;28;20032;-79
2023/04/19 07:36:18;;;;;;;32.23;22.97;;;8.20;99.90;;;;;;5011436;28;20486;-78
2023/04/19 07:38:43;;;;;;;33.57;21.97;;;8.30;99.90;;;;;;5011811;28;20063;-81
2023/04/19 07:41:09;;;;;;;32.87;22.77;;;8.30;99.90;;;;;;5011403;28;20409;-80
2023/04/19 07:43:35;;;;;;;30.40;21.07;;;8.40;99.90;;;;;;5011571;28;20084;-79
2023/04/19 07:46:02;;;;;;;32.97;21.50;;;8.50;99.90;;;;;;5011351;28;20066;-80
2023/04/19 07:48:27;;;;;;;66.43;36.43;;;8.50;99.90;;;;;;5011674;28;20091;-79
2023/04/19 07:50:53;;;;;;;36.53;22.57;;;8.60;99.90;;;;;;5010038;28;20033;-79
2023/04/19 07:53:18;;;;;;;30.43;21.53;;;8.80;99.90;;;;;;5011256;28;20033;-81
2023/04/19 07:55:44;;;;;;;30.97;21.33;;;8.90;99.90;;;;;;5010531;28;20030;-80
2023/04/19 07:58:10;;;;;;;31.33;20.37;;;9.00;99.90;;;;;;5011311;28;20032;-78
2023/04/19 08:00:36;;;;;;;36.20;24.40;;;9.00;99.90;;;;;;5010421;28;20030;-78
2023/04/19 08:03:03;;;;;;;33.17;22.87;;;9.00;99.90;;;;;;5010941;28;20113;-79
2023/04/19 08:05:30;;;;;;;34.00;23.33;;;9.10;99.90;;;;;;5008946;28;20045;-80
2023/04/19 08:07:55;;;;;;;33.50;23.97;;;9.20;99.90;;;;;;5010042;28;20029;-80
2023/04/19 08:10:22;;;;;;;28.60;21.30;;;9.20;99.90;;;;;;5011002;28;20056;-78
2023/04/19 08:12:48;;;;;;;31.40;20.97;;;9.20;99.90;;;;;;5010578;28;20026;-79
2023/04/19 08:15:14;;;;;;;28.63;20.40;;;9.20;99.90;;;;;;5010412;28;20124;-81
2023/04/19 08:17:43;;;;;;;29.50;19.90;;;9.30;99.90;;;;;;5010608;28;20028;-78
2023/04/19 08:20:11;;;;;;;32.00;21.43;;;9.40;99.90;;;;;;5009720;28;20053;-79
2023/04/19 08:22:37;;;;;;;29.50;21.90;;;9.40;99.90;;;;;;5010946;28;20698;-78
2023/04/19 08:25:04;;;;;;;30.20;21.30;;;9.50;99.90;;;;;;5010068;28;20045;-79
2023/04/19 08:27:29;;;;;;;29.40;21.77;;;9.60;99.90;;;;;;5010735;28;20477;-81
2023/04/19 08:29:55;;;;;;;28.70;19.97;;;9.70;99.90;;;;;;5007964;28;20040;-79
2023/04/19 08:32:20;;;;;;;28.40;19.38;;;9.80;99.90;;;;;;5009778;28;20053;-78
2023/04/19 08:34:46;;;;;;;28.57;20.20;;;9.90;99.90;;;;;;5009514;28;20113;-81
2023/04/19 08:37:11;;;;;;;26.50;19.53;;;10.00;99.90;;;;;;5009998;28;20103;-79
2023/04/19 08:39:37;;;;;;;25.13;18.17;;;10.10;99.90;;;;;;5010190;28;20053;-78
2023/04/19 08:42:05;;;;;;;26.83;18.77;;;10.10;99.90;;;;;;5010647;28;20106;-81
2023/04/19 08:44:32;;;;;;;24.23;18.35;;;10.30;99.90;;;;;;5010036;28;20110;-78
2023/04/19 08:46:59;;;;;;;27.77;18.45;;;10.40;99.90;;;;;;5010416;28;20520;-80
2023/04/19 08:49:26;;;;;;;26.55;19.25;;;10.60;99.90;;;;;;5010008;28;20037;-78
2023/04/19 08:51:52;;;;;;;22.98;17.33;;;10.80;99.90;;;;;;5010370;28;20061;-79
2023/04/19 08:54:20;;;;;;;25.77;18.40;;;10.80;99.90;;;;;;5010708;28;20065;-80
2023/04/19 08:56:45;;;;;;;27.20;19.60;;;10.80;99.90;;;;;;5011899;28;20608;-81
2023/04/19 08:59:12;;;;;;;29.08;21.35;;;10.80;99.90;;;;;;5013649;28;20061;-80
2023/04/19 09:01:37;;;;;;;26.52;19.63;;;10.70;99.90;;;;;;5011582;28;20068;-80
2023/04/19 09:04:05;;;;;;;26.10;18.95;;;10.70;99.90;;;;;;5012805;28;20105;-79
2023/04/19 09:06:36;;;;;;;26.90;19.73;;;10.80;99.90;;;;;;5010655;28;20142;-79
2023/04/19 09:09:17;;;;;;;24.92;18.17;;;11.00;99.90;;;;;;5010339;28;20029;-78
2023/04/19 09:11:43;;;;;;;22.23;16.55;;;11.10;99.90;;;;;;5010560;28;20076;-80
2023/04/19 09:14:13;;;;;;;22.38;16.00;;;11.20;99.90;;;;;;5014321;28;20051;-79
2023/04/19 09:16:39;;;;;;;27.73;17.48;;;11.20;99.90;;;;;;5014087;28;20021;-80
2023/04/19 09:19:05;;;;;;;26.55;18.10;;;11.30;99.90;;;;;;5013686;28;20048;-79
2023/04/19 09:21:31;;;;;;;23.35;16.90;;;11.30;99.90;;;;;;5013824;28;20021;-81
2023/04/19 09:23:58;;;;;;;21.05;16.52;;;11.30;99.90;;;;;;5014143;28;20045;-79
2023/04/19 09:26:28;;;;;;;22.75;16.40;;;11.20;99.90;;;;;;5014176;28;20041;-81
2023/04/19 09:29:06;;;;;;;22.88;16.25;;;11.20;99.90;;;;;;5013803;28;20036;-81
2023/04/19 09:31:35;;;;;;;23.98;15.93;;;11.10;99.90;;;;;;5011457;28;20045;-79
2023/04/19 09:34:14;;;;;;;22.00;15.68;;;11.00;99.90;;;;;;5014049;28;20029;-78
2023/04/19 09:36:40;;;;;;;20.13;15.98;;;11.00;99.90;;;;;;5013155;28;20026;-81
2023/04/19 09:39:06;;;;;;;22.17;16.67;;;11.00;99.90;;;;;;5014271;28;20025;-83
2023/04/19 09:41:32;;;;;;;20.85;15.75;;;10.90;99.90;;;;;;5012997;28;20025;-80
2023/04/19 09:44:11;;;;;;;21.90;16.52;;;10.90;99.90;;;;;;5013454;28;20026;-79
2023/04/19 09:46:37;;;;;;;20.55;15.57;;;11.00;99.90;;;;;;5012683;28;20099;-78
2023/04/19 09:49:22;;;;;;;21.33;16.20;;;11.10;99.90;;;;;;5013105;28;20029;-78
2023/04/19 09:51:50;;;;;;;23.17;17.73;;;11.10;99.90;;;;;;5012661;28;20025;-79
2023/04/19 09:54:19;;;;;;;21.63;16.70;;;11.10;99.90;;;;;;5013078;28;20018;-78
2023/04/19 09:56:45;;;;;;;23.80;17.52;;;11.00;99.90;;;;;;5012542;28;20040;-83
2023/04/19 09:59:11;;;;;;;21.90;16.55;;;11.00;99.90;;;;;;5013293;28;20045;-86
2023/04/19 10:01:41;;;;;;;21.95;16.70;;;11.10;99.90;;;;;;5012063;28;20155;-82
2023/04/19 10:04:13;;;;;;;22.25;17.83;;;11.10;99.90;;;;;;5012756;28;20497;-82
2023/04/19 10:06:39;;;;;;;24.38;17.50;;;11.10;99.90;;;;;;5012204;28;20041;-80
2023/04/19 10:09:05;;;;;;;24.13;16.92;;;11.10;99.90;;;;;;5013583;28;20037;-78
2023/04/19 10:11:37;;;;;;;26.33;17.38;;;11.20;99.90;;;;;;5011636;28;20461;-78
2023/04/19 10:14:08;;;;;;;24.65;17.35;;;11.30;99.90;;;;;;5012926;28;20034;-78
2023/04/19 10:16:35;;;;;;;23.95;16.80;;;11.50;99.90;;;;;;5013070;28;20304;-79
2023/04/19 10:19:13;;;;;;;22.65;16.83;;;11.70;99.90;;;;;;5012400;28;20053;-79
2023/04/19 10:21:42;;;;;;;23.67;16.83;;;11.80;99.90;;;;;;5012854;28;20056;-80
2023/04/19 10:24:11;;;;;;;21.35;16.65;;;11.80;99.90;;;;;;5011480;28;20395;-79
2023/04/19 10:27:06;;;;;;;23.35;17.58;;;11.80;99.90;;;;;;5012660;28;20042;-82
2023/04/19 10:29:50;;;;;;;26.13;17.80;;;11.70;99.90;;;;;;5010370;28;20034;-81
2023/04/19 10:32:16;;;;;;;25.38;18.13;;;11.50;99.90;;;;;;5012839;28;20121;-80
2023/04/19 10:34:42;;;;;;;22.00;17.50;;;11.30;99.90;;;;;;5012356;28;20029;-81
2023/04/19 10:37:14;;;;;;;26.45;17.65;;;11.10;99.90;;;;;;5012980;28;20445;-81
2023/04/19 10:39:41;;;;;;;23.67;16.40;;;11.00;99.90;;;;;;5011850;28;20061;-82
2023/04/19 10:42:07;;;;;;;23.35;17.25;;;10.80;99.90;;;;;;5011832;28;20373;-78
2023/04/19 10:44:32;;;;;;;22.13;16.08;;;10.70;99.90;;;;;;5012395;28;20021;-83
2023/04/19 10:46:59;;;;;;;25.52;18.73;;;10.70;99.90;;;;;;5012140;28;20060;-79
2023/04/19 10:49:28;;;;;;;24.60;17.80;;;10.60;99.90;;;;;;5011408;28;20025;-84
2023/04/19 10:51:56;;;;;;;24.40;16.75;;;10.60;99.90;;;;;;5012776;28;20033;-78
2023/04/19 10:54:37;;;;;;;23.45;17.90;;;10.70;99.90;;;;;;5011741;28;20040;-78
2023/04/19 10:57:07;;;;;;;26.40;18.17;;;10.70;99.90;;;;;;5012052;28;20222;-80
2023/04/19 10:59:37;;;;;;;27.25;18.52;;;10.70;99.90;;;;;;5011877;28;20037;-78
2023/04/19 11:02:04;;;;;;;26.48;19.58;;;10.70;99.90;;;;;;5012044;28;20026;-79
2023/04/19 11:04:30;;;;;;;28.48;19.33;;;10.80;99.90;;;;;;5011949;28;20064;-78
2023/04/19 11:07:04;;;;;;;23.33;16.73;;;10.90;99.90;;;;;;5011876;28;20030;-80
2023/04/19 11:09:44;;;;;;;23.85;16.10;;;11.00;99.90;;;;;;5011311;28;20033;-81
2023/04/19 11:12:14;;;;;;;20.30;15.88;;;11.20;99.90;;;;;;5011922;28;20032;-82
2023/04/19 11:14:40;;;;;;;21.83;15.68;;;11.30;99.90;;;;;;5012463;28;20099;-81
2023/04/19 11:17:25;;;;;;;21.63;16.55;;;11.40;99.90;;;;;;5012118;28;20033;-79
2023/04/19 11:19:55;;;;;;;29.15;18.52;;;11.50;99.90;;;;;;5011869;28;20046;-83
2023/04/19 11:22:35;;;;;;;20.70;15.45;;;11.60;99.90;;;;;;5011721;28;20473;-81
2023/04/19 11:25:21;;;;;;;23.60;16.40;;;11.60;99.90;;;;;;5011858;28;20037;-79
2023/04/19 11:27:51;;;;;;;21.42;16.05;;;11.70;99.90;;;;;;5011617;28;20489;-79
2023/04/19 11:30:27;;;;;;;23.27;16.02;;;11.70;99.90;;;;;;5011361;28;20057;-79
2023/04/19 11:32:54;;;;;;;20.83;15.98;;;11.70;99.90;;;;;;5011045;28;20540;-81
2023/04/19 11:35:22;;;;;;;21.08;15.38;;;11.80;99.90;;;;;;5010630;28;20040;-77
2023/04/19 11:37:48;;;;;;;25.23;17.17;;;11.70;99.90;;;;;;5012016;28;20121;-80
2023/04/19 11:40:16;;;;;;;24.75;16.98;;;11.50;99.90;;;;;;5011274;28;20080;-80
2023/04/19 11:42:41;;;;;;;22.52;17.02;;;11.40;99.90;;;;;;5011993;28;20531;-79
2023/04/19 11:45:08;;;;;;;22.65;17.60;;;11.20;99.90;;;;;;5012427;28;20033;-78
2023/04/19 11:47:34;;;;;;;29.02;19.40;;;10.90;99.90;;;;;;5011276;28;20123;-81
2023/04/19 11:50:33;;;;;;;26.70;19.63;;;10.70;99.90;;;;;;5013165;28;20148;-82
2023/04/19 11:53:08;;;;;;;30.92;20.70;;;10.50;99.90;;;;;;5009528;28;20078;-79
2023/04/19 11:55:34;;;;;;;35.65;22.95;;;10.20;99.90;;;;;;5010749;28;20057;-78
2023/04/19 11:57:59;;;;;;;26.77;20.52;;;10.10;99.90;;;;;;5011037;28;20113;-81
2023/04/19 12:00:30;;;;;;;25.85;20.80;;;10.00;99.90;;;;;;5010512;28;20112;-79
2023/04/19 12:02:56;;;;;;;24.23;16.43;;;9.90;99.90;;;;;;5010617;28;20168;-79
2023/04/19 12:05:22;;;;;;;22.47;16.60;;;9.70;99.90;;;;;;5010898;28;20524;-79
2023/04/19 12:08:05;;;;;;;23.20;17.43;;;9.60;99.90;;;;;;5011261;28;20033;-80
2023/04/19 12:10:31;;;;;;;21.47;16.93;;;9.50;99.90;;;;;;5011300;28;20119;-77
2023/04/19 12:12:57;;;;;;;22.90;17.20;;;9.50;99.90;;;;;;5011443;28;20037;-79
2023/04/19 12:15:23;;;;;;;24.47;16.93;;;9.40;99.90;;;;;;5011057;28;20730;-80
2023/04/19 12:18:00;;;;;;;25.10;16.57;;;9.30;99.90;;;;;;5011711;28;20037;-81
2023/04/19 12:20:33;;;;;;;22.23;16.23;;;9.30;99.90;;;;;;5010114;28;20061;-78
2023/04/19 12:23:00;;;;;;;22.30;16.43;;;9.20;99.90;;;;;;5011929;28;20030;-81
2023/04/19 12:25:30;;;;;;;23.80;16.87;;;9.20;99.90;;;;;;5011513;28;20041;-78
2023/04/19 12:27:56;;;;;;;23.23;17.77;;;9.10;99.90;;;;;;5012524;28;20038;-79
2023/04/19 12:30:21;;;;;;;25.00;19.37;;;9.10;99.90;;;;;;5011148;28;20369;-85
2023/04/19 12:32:47;;;;;;;27.23;18.63;;;9.10;99.90;;;;;;5011774;28;20026;-78